Time;durP1;ratioP1;P1;durP2;ratioP2;P2;SDS_P1;SDS_P2;PMS_P1;PMS_P2;Temp;Humidity;BMP_temperature;BMP_pressure;BME280_temperature;BME280_humidity;BME280_pressure;Samples;Min_cycle;Max_cycle;Signal;HPM_P1;HPM_P2
2020/12/24 00:02:17;;;;;;;0.40;0.40;;;;;;;10.85;100.00;99857.88;5017436;28;20440;-83
2020/12/24 00:04:43;;;;;;;0.40;0.30;;;;;;;10.90;100.00;99870.47;5003550;28;20460;-83
2020/12/24 00:07:09;;;;;;;1.03;0.70;;;;;;;10.95;100.00;99865.66;4998003;28;20445;-83
2020/12/24 00:09:36;;;;;;;1.80;0.73;;;;;;;10.97;100.00;99863.41;4997677;28;20468;-83
2020/12/24 00:12:03;;;;;;;1.37;0.80;;;;;;;10.90;100.00;99862.31;4997771;28;20946;-84
2020/12/24 00:14:29;;;;;;;1.70;1.10;;;;;;;10.96;100.00;99869.16;5008599;28;20448;-83
2020/12/24 00:16:55;;;;;;;2.20;2.10;;;;;;;11.00;100.00;99865.50;5017427;28;20530;-84
2020/12/24 00:19:21;;;;;;;0.93;0.70;;;;;;;11.05;100.00;99867.22;5017381;28;20498;-83
2020/12/24 00:21:47;;;;;;;0.63;0.50;;;;;;;11.09;100.00;99865.47;5017432;28;20506;-83
2020/12/24 00:24:15;;;;;;;1.73;0.63;;;;;;;11.11;100.00;99863.22;5017366;28;20455;-83
2020/12/24 00:26:43;;;;;;;1.07;0.97;;;;;;;11.10;100.00;99867.06;5017253;28;20460;-83
2020/12/24 00:29:10;;;;;;;0.63;0.63;;;;;;;11.05;100.00;99856.38;5017649;28;20473;-83
2020/12/24 00:31:36;;;;;;;2.00;1.90;;;;;;;11.05;100.00;99857.19;5017639;28;20444;-83
2020/12/24 00:34:03;;;;;;;0.50;0.50;;;;;;;11.09;100.00;99852.72;5017495;28;20467;-84
2020/12/24 00:36:30;;;;;;;0.60;0.50;;;;;;;11.16;100.00;99856.88;5017829;28;20614;-83
2020/12/24 00:38:57;;;;;;;0.50;0.40;;;;;;;11.14;100.00;99854.47;5017693;28;20861;-83
2020/12/24 00:41:24;;;;;;;1.67;0.80;;;;;;;11.12;100.00;99856.72;5016857;28;20448;-83
2020/12/24 00:43:52;;;;;;;1.00;0.73;;;;;;;11.16;100.00;99854.94;5016036;28;20502;-83
2020/12/24 00:46:18;;;;;;;0.80;0.47;;;;;;;11.18;100.00;99860.81;5014478;28;20446;-83
2020/12/24 00:48:45;;;;;;;4.00;1.37;;;;;;;11.18;100.00;99866.25;4997286;28;20473;-83
2020/12/24 00:51:11;;;;;;;0.67;0.67;;;;;;;11.15;100.00;99858.75;4997560;28;20515;-83
2020/12/24 00:53:37;;;;;;;1.27;1.17;;;;;;;11.14;100.00;99846.31;4996749;28;20441;-84
2020/12/24 00:56:04;;;;;;;0.60;0.60;;;;;;;11.13;100.00;99855.59;4995860;28;21016;-83
2020/12/24 00:58:31;;;;;;;0.40;0.30;;;;;;;11.13;100.00;99862.91;5015770;28;20464;-83
2020/12/24 01:00:58;;;;;;;0.80;0.40;;;;;;;11.10;100.00;99861.63;5016881;28;20479;-83
2020/12/24 01:03:24;;;;;;;0.80;0.63;;;;;;;10.99;100.00;99854.97;5017380;28;20453;-83
2020/12/24 01:05:50;;;;;;;0.70;0.70;;;;;;;10.89;100.00;99860.72;5017480;28;20437;-83
2020/12/24 01:08:17;;;;;;;1.17;1.07;;;;;;;10.83;100.00;99858.16;5017923;28;20669;-83
2020/12/24 01:10:43;;;;;;;0.40;0.30;;;;;;;10.86;100.00;99865.66;5017447;28;20467;-83
2020/12/24 01:13:09;;;;;;;0.87;0.67;;;;;;;10.90;100.00;99857.69;5002862;28;20457;-83
2020/12/24 01:15:36;;;;;;;0.60;0.60;;;;;;;10.93;100.00;99858.97;4997423;28;20855;-83
2020/12/24 01:18:03;;;;;;;0.50;0.40;;;;;;;10.95;100.00;99859.44;4997889;28;20489;-83
2020/12/24 01:20:29;;;;;;;0.60;0.40;;;;;;;10.95;100.00;99857.53;4996778;28;20469;-83
2020/12/24 01:22:55;;;;;;;0.87;0.80;;;;;;;10.92;100.00;99850.03;4998501;28;20418;-83
2020/12/24 01:25:22;;;;;;;0.50;0.40;;;;;;;10.97;100.00;99854.50;5015562;28;20456;-82
2020/12/24 01:27:48;;;;;;;0.40;0.30;;;;;;;10.92;100.00;99846.53;5017440;28;20842;-82
2020/12/24 01:30:14;;;;;;;5.13;0.77;;;;;;;10.89;100.00;99839.03;5001168;28;20531;-82
2020/12/24 01:32:41;;;;;;;0.40;0.20;;;;;;;10.86;100.00;99835.88;5008124;28;20444;-82
2020/12/24 01:35:08;;;;;;;1.80;0.50;;;;;;;10.84;100.00;99840.00;5016746;28;20802;-82
2020/12/24 01:37:34;;;;;;;1.00;1.00;;;;;;;10.81;100.00;99838.75;5016482;28;20511;-82
2020/12/24 01:40:00;;;;;;;0.50;0.40;;;;;;;10.75;100.00;99834.59;5016833;28;20464;-81
2020/12/24 01:42:27;;;;;;;0.40;0.30;;;;;;;10.77;100.00;99826.16;5016348;28;20455;-83
2020/12/24 01:44:54;;;;;;;2.47;0.90;;;;;;;10.71;100.00;99814.69;5016579;28;20454;-82
2020/12/24 01:47:20;;;;;;;0.60;0.40;;;;;;;10.65;100.00;99815.97;5016166;28;20444;-82
2020/12/24 01:49:46;;;;;;;0.50;0.30;;;;;;;10.60;100.00;99816.13;5016347;28;20464;-82
2020/12/24 01:52:31;;;;;;;0.40;0.33;;;;;;;10.57;100.00;99814.06;5015982;28;20440;-82
2020/12/24 01:54:58;;;;;;;0.60;0.50;;;;;;;10.56;100.00;99809.78;5015718;28;20437;-83
2020/12/24 01:57:24;;;;;;;0.60;0.40;;;;;;;10.54;100.00;99801.19;5015648;28;20540;-82
2020/12/24 01:59:50;;;;;;;0.40;0.30;;;;;;;10.49;100.00;99796.72;5016176;28;20479;-82
2020/12/24 02:02:17;;;;;;;0.40;0.30;;;;;;;10.46;100.00;99788.44;5015752;28;20487;-82
2020/12/24 02:04:43;;;;;;;0.40;0.30;;;;;;;10.43;100.00;99780.94;5016001;28;20463;-82
2020/12/24 02:07:09;;;;;;;0.40;0.30;;;;;;;10.40;100.00;99773.47;5015795;28;20459;-82
2020/12/24 02:09:36;;;;;;;0.40;0.30;;;;;;;10.32;100.00;99765.03;5015894;28;20456;-82
2020/12/24 02:12:03;;;;;;;0.73;0.40;;;;;;;10.29;100.00;99773.78;5003095;28;20942;-82
2020/12/24 02:14:29;;;;;;;0.40;0.30;;;;;;;10.30;100.00;99772.66;4995713;28;20784;-82
2020/12/24 02:16:56;;;;;;;0.40;0.30;;;;;;;10.32;100.00;99769.66;4995421;28;21018;-82
2020/12/24 02:19:22;;;;;;;0.50;0.30;;;;;;;10.31;100.00;99768.88;4995446;28;21117;-81
2020/12/24 02:21:49;;;;;;;0.40;0.30;;;;;;;10.28;100.00;99776.81;4995923;28;20449;-82
2020/12/24 02:24:15;;;;;;;0.40;0.30;;;;;;;10.31;100.00;99763.47;4995905;28;20463;-82
2020/12/24 02:26:41;;;;;;;0.40;0.30;;;;;;;10.31;100.00;99762.63;4996143;28;20440;-81
2020/12/24 02:29:07;;;;;;;1.37;0.60;;;;;;;10.28;100.00;99755.16;4995901;28;20464;-81
2020/12/24 02:31:34;;;;;;;0.40;0.30;;;;;;;10.30;100.00;99764.53;5001810;28;20813;-82
2020/12/24 02:34:00;;;;;;;0.50;0.30;;;;;;;10.35;100.00;99761.69;5015220;28;20432;-82
2020/12/24 02:36:26;;;;;;;2.10;0.90;;;;;;;10.40;100.00;99758.00;5002552;28;20453;-82
2020/12/24 02:38:53;;;;;;;0.53;0.47;;;;;;;10.40;100.00;99758.00;4995527;28;20946;-82
2020/12/24 02:41:19;;;;;;;0.40;0.30;;;;;;;10.46;100.00;99754.03;4996688;28;20437;-82
2020/12/24 02:43:48;;;;;;;0.50;0.50;;;;;;;10.52;100.00;99760.88;4995794;28;20445;-81
2020/12/24 02:46:14;;;;;;;0.40;0.30;;;;;;;10.57;100.00;99752.56;4995132;28;20449;-81
2020/12/24 02:48:40;;;;;;;0.40;0.30;;;;;;;10.58;100.00;99750.66;4994891;28;20449;-82
2020/12/24 02:51:08;;;;;;;0.40;0.30;;;;;;;10.57;100.00;99738.25;4995433;28;20807;-82
2020/12/24 02:53:34;;;;;;;0.70;0.50;;;;;;;10.50;100.00;99737.94;5001114;28;20906;-81
2020/12/24 02:56:01;;;;;;;0.40;0.30;;;;;;;10.45;100.00;99743.53;5015130;28;20471;-80
2020/12/24 02:58:27;;;;;;;0.40;0.30;;;;;;;10.47;100.00;99735.88;5014180;28;20554;-79
2020/12/24 03:00:54;;;;;;;2.90;0.60;;;;;;;10.52;100.00;99735.72;5015023;28;20487;-81
2020/12/24 03:03:20;;;;;;;0.40;0.30;;;;;;;10.52;100.00;99750.03;5015092;28;20471;-80
2020/12/24 03:05:47;;;;;;;0.60;0.60;;;;;;;10.50;100.00;99749.56;5039483;22;20944;-69
2020/12/24 03:08:13;;;;;;;3.87;0.43;;;;;;;10.51;100.00;99743.03;5013696;28;20444;-68
2020/12/24 03:10:39;;;;;;;0.40;0.30;;;;;;;10.59;100.00;99736.03;5014174;28;20448;-69
2020/12/24 03:13:06;;;;;;;0.40;0.33;;;;;;;10.59;100.00;99736.03;5014269;28;20448;-68
2020/12/24 03:15:32;;;;;;;0.40;0.30;;;;;;;10.59;100.00;99738.72;5013498;28;20526;-68
2020/12/24 03:17:58;;;;;;;0.50;0.50;;;;;;;10.59;100.00;99730.59;5015083;28;20519;-68
2020/12/24 03:20:25;;;;;;;0.60;0.60;;;;;;;10.59;100.00;99728.69;5018066;28;20453;-68
2020/12/24 03:22:51;;;;;;;0.60;0.60;;;;;;;10.64;100.00;99724.22;5017572;28;20490;-69
2020/12/24 03:25:17;;;;;;;1.03;0.93;;;;;;;10.69;100.00;99716.72;5018047;28;20476;-68
2020/12/24 03:27:43;;;;;;;0.40;0.30;;;;;;;10.70;100.00;99717.50;5017703;28;20483;-69
2020/12/24 03:30:10;;;;;;;0.50;0.40;;;;;;;10.71;100.00;99708.25;5018237;28;20492;-68
2020/12/24 03:32:37;;;;;;;1.33;0.43;;;;;;;10.74;100.00;99713.03;5017549;28;20456;-69
2020/12/24 03:35:03;;;;;;;0.40;0.30;;;;;;;10.76;100.00;99717.03;5016950;28;20444;-69
2020/12/24 03:37:29;;;;;;;0.40;0.30;;;;;;;10.77;100.00;99717.81;5016605;28;20483;-69
2020/12/24 03:39:56;;;;;;;1.27;0.70;;;;;;;10.78;100.00;99719.41;5017075;28;20444;-69
2020/12/24 03:42:22;;;;;;;0.40;0.37;;;;;;;10.77;100.00;99717.81;5016510;28;20440;-70
2020/12/24 03:44:48;;;;;;;0.70;0.40;;;;;;;10.66;100.00;99706.50;5016996;28;20444;-69
2020/12/24 03:47:15;;;;;;;4.80;2.43;;;;;;;10.68;100.00;99708.91;5016593;28;20511;-69
2020/12/24 03:49:41;;;;;;;0.40;0.30;;;;;;;10.60;100.00;99705.91;5016360;28;20448;-70
2020/12/24 03:52:08;;;;;;;1.53;1.43;;;;;;;10.58;100.00;99704.63;5016238;28;20997;-69
2020/12/24 03:54:34;;;;;;;1.10;0.47;;;;;;;10.56;100.00;99706.88;5016768;28;20444;-69
2020/12/24 03:57:00;;;;;;;0.40;0.40;;;;;;;10.49;100.00;99698.44;5016243;28;20487;-70
2020/12/24 03:59:26;;;;;;;0.50;0.33;;;;;;;10.41;100.00;99702.78;5016507;28;20829;-69
2020/12/24 04:01:52;;;;;;;0.40;0.30;;;;;;;10.39;100.00;99696.06;5016487;28;22145;-70
2020/12/24 04:04:19;;;;;;;1.33;0.43;;;;;;;10.37;100.00;99696.41;5016317;28;20479;-69
2020/12/24 04:06:45;;;;;;;0.40;0.30;;;;;;;10.35;100.00;99701.31;5017702;28;20545;-69
2020/12/24 04:09:12;;;;;;;0.73;0.53;;;;;;;10.37;100.00;99695.63;5016533;28;20448;-69
2020/12/24 04:11:38;;;;;;;0.40;0.30;;;;;;;10.34;100.00;99705.16;5016031;28;21050;-69
2020/12/24 04:14:04;;;;;;;0.40;0.40;;;;;;;10.32;100.00;99689.25;5016460;28;20480;-69
2020/12/24 04:16:30;;;;;;;0.60;0.53;;;;;;;10.33;100.00;99684.63;5015800;28;20523;-69
2020/12/24 04:18:56;;;;;;;0.40;0.30;;;;;;;10.31;100.00;99679.53;5015004;28;20937;-71
2020/12/24 04:21:23;;;;;;;0.50;0.40;;;;;;;10.30;100.00;99677.94;5015959;28;20483;-69
2020/12/24 04:23:50;;;;;;;0.40;0.30;;;;;;;10.28;100.00;99673.97;5015935;28;20479;-69
2020/12/24 04:26:20;;;;;;;0.40;0.30;;;;;;;10.29;100.00;99670.94;5015468;28;20499;-69
2020/12/24 04:28:46;;;;;;;0.40;0.30;;;;;;;10.27;100.00;99666.94;5015799;28;20444;-70
2020/12/24 04:31:12;;;;;;;0.80;0.73;;;;;;;10.20;100.00;99663.94;5015663;28;21083;-69
2020/12/24 04:33:38;;;;;;;0.40;0.30;;;;;;;10.18;100.00;99669.66;5016074;28;20821;-69
2020/12/24 04:36:05;;;;;;;0.40;0.30;;;;;;;10.16;100.00;99669.19;5016348;28;20478;-68
2020/12/24 04:38:32;;;;;;;0.50;0.40;;;;;;;10.09;100.00;99675.09;5015808;28;20566;-68
2020/12/24 04:40:58;;;;;;;0.70;0.70;;;;;;;10.06;100.00;99666.81;5016176;28;20440;-68
2020/12/24 04:43:26;;;;;;;0.50;0.47;;;;;;;10.04;100.00;99671.72;5015928;28;20475;-68
2020/12/24 04:45:53;;;;;;;0.40;0.30;;;;;;;10.00;100.00;99673.47;5015755;28;20973;-68
2020/12/24 04:48:20;;;;;;;0.40;0.30;;;;;;;9.96;100.00;99664.41;5016153;28;20440;-68
2020/12/24 04:50:50;;;;;;;0.70;0.30;;;;;;;9.85;100.00;99656.63;5016404;28;20496;-69
2020/12/24 04:53:16;;;;;;;0.40;0.40;;;;;;;9.84;100.00;99649.63;5015781;28;20829;-68
2020/12/24 04:55:43;;;;;;;0.40;0.30;;;;;;;9.78;100.00;99658.22;5015766;28;20464;-69
2020/12/24 04:58:10;;;;;;;1.00;0.60;;;;;;;9.74;100.00;99655.38;5015542;28;20523;-69
2020/12/24 05:00:37;;;;;;;0.40;0.30;;;;;;;9.71;100.00;99666.03;5015048;28;20439;-69
2020/12/24 05:03:08;;;;;;;0.40;0.30;;;;;;;9.71;100.00;99671.44;5015728;28;20482;-69
2020/12/24 05:05:36;;;;;;;0.40;0.30;;;;;;;9.71;100.00;99676.84;5015695;28;20503;-68
2020/12/24 05:08:04;;;;;;;0.40;0.30;;;;;;;9.74;100.00;99693.22;5015575;28;20448;-68
2020/12/24 05:10:31;;;;;;;0.40;0.30;;;;;;;9.82;100.00;99691.63;5015458;28;20452;-69
2020/12/24 05:12:58;;;;;;;0.40;0.30;;;;;;;9.86;100.00;99689.88;4996114;28;20474;-68
2020/12/24 05:15:29;;;;;;;0.40;0.30;;;;;;;9.92;100.00;99698.66;5004815;28;20444;-68
2020/12/24 05:18:13;;;;;;;0.40;0.20;;;;;;;9.97;100.00;99687.66;5015279;28;20515;-69
2020/12/24 05:20:39;;;;;;;0.90;0.40;;;;;;;9.99;100.00;99698.94;5015393;28;20464;-67
2020/12/24 05:23:11;;;;;;;0.50;0.40;;;;;;;10.00;100.00;99708.66;5016087;28;20474;-67
2020/12/24 05:25:37;;;;;;;0.60;0.40;;;;;;;10.02;100.00;99709.16;5014534;28;20471;-67
2020/12/24 05:28:04;;;;;;;0.40;0.30;;;;;;;9.98;100.00;99700.88;5015089;28;20476;-68
2020/12/24 05:30:31;;;;;;;0.40;0.30;;;;;;;9.99;100.00;99707.06;5014997;28;20444;-68
2020/12/24 05:32:58;;;;;;;0.70;0.70;;;;;;;9.96;100.00;99695.00;5014818;28;20475;-67
2020/12/24 05:35:25;;;;;;;0.50;0.40;;;;;;;9.95;100.00;99695.28;5014966;28;20891;-67
2020/12/24 05:37:52;;;;;;;0.53;0.50;;;;;;;9.93;100.00;99695.63;5014522;28;21019;-68
2020/12/24 05:40:21;;;;;;;0.60;0.50;;;;;;;9.92;99.82;99687.81;5014569;28;20953;-67
2020/12/24 05:42:48;;;;;;;0.60;0.40;;;;;;;9.95;100.00;99695.28;5014846;28;20475;-67
2020/12/24 05:45:20;;;;;;;1.00;0.90;;;;;;;9.95;100.00;99708.81;5015094;28;20444;-66
2020/12/24 05:47:46;;;;;;;4.17;1.83;;;;;;;9.89;100.00;99691.16;5014862;28;20475;-68
2020/12/24 05:50:23;;;;;;;0.60;0.40;;;;;;;9.88;100.00;99698.47;5014997;28;20534;-67
2020/12/24 05:53:06;;;;;;;0.40;0.33;;;;;;;9.84;100.00;99692.91;5014511;28;20452;-68
2020/12/24 05:55:33;;;;;;;0.43;0.33;;;;;;;9.85;100.00;99694.50;5014596;28;21197;-68
2020/12/24 05:57:59;;;;;;;7.20;0.77;;;;;;;9.79;100.00;99701.19;5014687;28;20515;-68
2020/12/24 06:00:32;;;;;;;0.80;0.40;;;;;;;9.83;99.39;99690.53;5014770;28;20472;-68
2020/12/24 06:03:09;;;;;;;0.40;0.30;;;;;;;9.80;99.67;99689.25;4995692;28;20779;-67
2020/12/24 06:05:53;;;;;;;0.40;0.20;;;;;;;9.74;97.95;99693.22;5001908;28;20523;-67
2020/12/24 06:08:23;;;;;;;0.50;0.40;;;;;;;9.75;98.25;99694.03;5014352;28;20477;-66
2020/12/24 06:11:00;;;;;;;0.40;0.30;;;;;;;9.72;97.45;99684.63;5014847;28;20520;-67
2020/12/24 06:13:36;;;;;;;0.40;0.30;;;;;;;9.67;96.69;99686.69;5015004;28;20519;-66
2020/12/24 06:16:05;;;;;;;0.40;0.30;;;;;;;9.67;95.17;99692.91;5015117;28;20526;-66
2020/12/24 06:18:36;;;;;;;0.87;0.40;;;;;;;9.62;95.46;99706.56;5014464;28;20471;-67
2020/12/24 06:21:03;;;;;;;0.87;0.53;;;;;;;9.49;95.71;99707.50;5014213;28;20448;-67
2020/12/24 06:23:35;;;;;;;4.63;0.50;;;;;;;9.44;95.30;99705.75;5013623;28;20495;-68
2020/12/24 06:26:06;;;;;;;0.40;0.30;;;;;;;9.39;94.84;99702.41;5014324;28;21004;-67
2020/12/24 06:28:34;;;;;;;1.13;0.93;;;;;;;9.31;94.48;99707.47;5013419;28;22148;-67
2020/12/24 06:31:02;;;;;;;0.40;0.30;;;;;;;9.31;93.31;99709.38;5014184;28;20440;-67
2020/12/24 06:33:30;;;;;;;0.40;0.30;;;;;;;9.33;92.72;99704.44;5013671;28;20885;-66
2020/12/24 06:35:57;;;;;;;0.40;0.30;;;;;;;9.26;92.81;99706.81;5013693;28;20471;-67
2020/12/24 06:38:45;;;;;;;0.40;0.30;;;;;;;9.27;91.91;99717.31;5013524;28;20488;-67
2020/12/24 06:41:26;;;;;;;0.40;0.30;;;;;;;9.23;90.81;99702.81;5013722;28;20432;-66
2020/12/24 06:43:53;;;;;;;1.43;0.90;;;;;;;9.22;90.44;99709.34;5013484;28;20448;-67
2020/12/24 06:46:19;;;;;;;1.33;0.60;;;;;;;9.20;90.75;99722.34;5014015;28;20499;-66
2020/12/24 06:49:06;;;;;;;0.50;0.40;;;;;;;9.18;91.39;99702.97;5013384;28;20447;-67
2020/12/24 06:51:46;;;;;;;0.40;0.30;;;;;;;9.12;91.58;99714.22;5013416;28;20476;-66
2020/12/24 06:54:23;;;;;;;0.40;0.30;;;;;;;9.07;91.08;99713.28;5013196;28;20467;-66
2020/12/24 06:56:50;;;;;;;0.40;0.30;;;;;;;9.05;89.96;99704.66;5013394;28;20836;-67
2020/12/24 06:59:21;;;;;;;0.40;0.30;;;;;;;9.06;89.21;99710.88;5013353;28;20867;-66
2020/12/24 07:02:01;;;;;;;0.40;0.30;;;;;;;9.09;90.37;99707.56;5013327;28;20451;-66
2020/12/24 07:04:39;;;;;;;0.40;0.30;;;;;;;9.06;90.06;99718.97;5013462;28;20443;-66
2020/12/24 07:07:05;;;;;;;0.40;0.30;;;;;;;9.03;90.85;99706.91;5012595;28;20559;-68
2020/12/24 07:09:42;;;;;;;0.50;0.50;;;;;;;8.96;91.17;99705.75;5013743;28;20502;-67
2020/12/24 07:12:09;;;;;;;0.40;0.30;;;;;;;8.93;91.86;99714.47;5013203;28;20455;-67
2020/12/24 07:14:36;;;;;;;0.43;0.33;;;;;;;8.92;93.24;99704.78;5013152;28;20958;-66
2020/12/24 07:17:11;;;;;;;0.77;0.40;;;;;;;8.87;92.30;99710.31;5013218;28;20549;-67
2020/12/24 07:19:42;;;;;;;0.70;0.57;;;;;;;8.88;91.95;99720.00;5013015;28;21007;-67
2020/12/24 07:22:10;;;;;;;2.80;2.60;;;;;;;8.87;92.52;99713.03;5013783;28;20451;-66
2020/12/24 07:24:37;;;;;;;0.60;0.40;;;;;;;8.84;91.86;99719.84;5013896;28;20452;-66
2020/12/24 07:27:04;;;;;;;0.40;0.30;;;;;;;8.82;92.32;99720.16;5013897;28;20471;-66
2020/12/24 07:29:32;;;;;;;0.40;0.30;;;;;;;8.79;92.67;99717.28;5013767;28;20530;-66
2020/12/24 07:32:02;;;;;;;0.40;0.30;;;;;;;8.77;92.41;99717.59;5013646;28;20484;-66
2020/12/24 07:34:30;;;;;;;0.40;0.30;;;;;;;8.74;92.89;99718.19;5002465;28;20452;-67
2020/12/24 07:36:58;;;;;;;0.40;0.30;;;;;;;8.70;92.37;99714.53;4994914;28;20469;-67
2020/12/24 07:39:25;;;;;;;0.60;0.60;;;;;;;8.69;92.36;99712.94;5000128;28;20869;-67
2020/12/24 07:41:52;;;;;;;0.40;0.30;;;;;;;8.70;92.82;99717.22;5006437;28;20455;-66
2020/12/24 07:44:19;;;;;;;1.43;0.50;;;;;;;8.65;92.47;99714.66;5014815;28;20502;-66
2020/12/24 07:46:47;;;;;;;0.50;0.30;;;;;;;8.69;93.08;99718.34;5014099;28;20518;-68
2020/12/24 07:49:13;;;;;;;1.23;0.60;;;;;;;8.74;92.96;99710.09;5014291;28;20958;-66
2020/12/24 07:51:41;;;;;;;0.40;0.30;;;;;;;8.78;91.67;99700.28;5014546;28;20823;-66
2020/12/24 07:54:12;;;;;;;0.40;0.30;;;;;;;8.84;91.60;99703.63;5013371;28;20452;-68
2020/12/24 07:56:43;;;;;;;0.40;0.30;;;;;;;8.86;91.36;99709.53;5013636;28;20487;-69
2020/12/24 07:59:10;;;;;;;0.40;0.30;;;;;;;8.86;90.36;99711.44;5013814;28;20440;-68
2020/12/24 08:01:36;;;;;;;1.63;0.70;;;;;;;8.92;89.97;99712.88;5013385;28;20514;-68
2020/12/24 08:04:04;;;;;;;0.40;0.30;;;;;;;8.91;89.96;99714.00;5013955;28;20451;-68
2020/12/24 08:06:31;;;;;;;0.40;0.30;;;;;;;8.93;90.30;99714.47;5016546;28;20472;-68
2020/12/24 08:09:09;;;;;;;0.40;0.30;;;;;;;8.95;90.14;99717.66;5016408;28;20444;-66
2020/12/24 08:11:35;;;;;;;0.50;0.40;;;;;;;9.00;90.37;99722.94;5016829;28;20428;-67
2020/12/24 08:14:01;;;;;;;0.40;0.30;;;;;;;8.97;88.99;99715.44;5016195;28;20448;-68
2020/12/24 08:16:29;;;;;;;0.40;0.30;;;;;;;8.97;89.10;99720.84;5016438;28;20472;-67
2020/12/24 08:19:01;;;;;;;0.40;0.30;;;;;;;8.92;90.06;99710.97;5016478;28;20522;-67
2020/12/24 08:21:31;;;;;;;0.40;0.30;;;;;;;8.97;90.66;99712.75;5015937;28;20475;-68
2020/12/24 08:24:03;;;;;;;0.40;0.30;;;;;;;8.98;91.15;99714.31;5016484;28;20436;-67
2020/12/24 08:26:33;;;;;;;0.40;0.30;;;;;;;9.01;91.64;99714.50;5015643;28;21004;-67
2020/12/24 08:29:03;;;;;;;0.40;0.30;;;;;;;9.03;90.70;99720.41;5015912;28;21080;-67
2020/12/24 08:31:30;;;;;;;0.40;0.30;;;;;;;8.93;90.93;99717.16;5015647;28;20961;-67
2020/12/24 08:33:57;;;;;;;0.40;0.30;;;;;;;8.88;91.60;99704.59;5016094;28;20950;-67
2020/12/24 08:36:26;;;;;;;0.40;0.30;;;;;;;8.82;91.65;99712.06;5015715;28;20494;-67
2020/12/24 08:39:05;;;;;;;0.40;0.30;;;;;;;8.80;92.34;99710.75;5015881;28;21038;-67
2020/12/24 08:41:35;;;;;;;0.60;0.57;;;;;;;8.77;92.22;99714.88;5016092;28;20440;-66
2020/12/24 08:44:04;;;;;;;0.40;0.30;;;;;;;8.76;92.55;99713.28;5015625;28;20502;-67
2020/12/24 08:46:31;;;;;;;0.50;0.50;;;;;;;8.80;91.50;99702.66;5016085;28;20464;-67
2020/12/24 08:49:16;;;;;;;0.40;0.30;;;;;;;8.81;89.90;99706.97;5015119;28;20511;-67
2020/12/24 08:51:42;;;;;;;0.60;0.43;;;;;;;8.81;90.32;99710.47;5016209;28;20443;-67
2020/12/24 08:54:09;;;;;;;0.40;0.30;;;;;;;8.81;89.42;99705.06;5015669;28;20452;-67
2020/12/24 08:56:37;;;;;;;0.40;0.30;;;;;;;8.87;89.55;99702.22;5015755;28;20469;-67
2020/12/24 08:59:08;;;;;;;0.40;0.30;;;;;;;8.89;88.12;99697.28;5015275;28;20511;-67
2020/12/24 09:01:39;;;;;;;0.40;0.30;;;;;;;8.90;88.24;99697.00;5015586;28;20913;-68
2020/12/24 09:04:11;;;;;;;0.40;0.30;;;;;;;8.97;87.81;99697.34;5015586;28;20451;-67
2020/12/24 09:06:37;;;;;;;0.40;0.30;;;;;;;9.07;88.28;99690.84;5015371;28;21027;-65
2020/12/24 09:09:04;;;;;;;0.47;0.30;;;;;;;9.08;87.55;99687.06;5015662;28;20483;-67
2020/12/24 09:11:31;;;;;;;0.40;0.30;;;;;;;9.14;88.82;99698.50;5015070;28;20440;-69
2020/12/24 09:13:59;;;;;;;22.23;0.90;;;;;;;9.24;88.01;99690.09;5013938;28;20452;-66
2020/12/24 09:16:25;;;;;;;0.40;0.30;;;;;;;9.25;86.41;99697.91;5014386;28;20526;-67
2020/12/24 09:19:01;;;;;;;0.40;0.30;;;;;;;9.20;86.80;99687.22;5018237;28;20488;-65
2020/12/24 09:21:27;;;;;;;0.40;0.30;;;;;;;9.21;85.57;99696.94;5016156;28;20427;-67
2020/12/24 09:23:53;;;;;;;1.33;0.30;;;;;;;9.18;86.31;99699.47;5015054;28;20949;-66
2020/12/24 09:26:20;;;;;;;0.93;0.87;;;;;;;9.19;85.39;99696.44;5015110;28;20503;-67
2020/12/24 09:28:46;;;;;;;0.40;0.30;;;;;;;9.22;85.18;99698.53;5015904;28;20515;-66
2020/12/24 09:31:14;;;;;;;0.40;0.30;;;;;;;9.27;84.54;99711.91;5015353;28;20507;-68
2020/12/24 09:33:40;;;;;;;0.40;0.30;;;;;;;9.28;84.20;99699.19;5015864;28;20487;-66
2020/12/24 09:36:06;;;;;;;0.40;0.30;;;;;;;9.26;85.09;99691.41;5015416;28;20492;-66
2020/12/24 09:38:32;;;;;;;0.40;0.30;;;;;;;9.29;83.71;99688.03;5015350;28;20506;-66
2020/12/24 09:40:58;;;;;;;0.40;0.30;;;;;;;9.36;83.79;99684.91;5015684;28;20483;-67
2020/12/24 09:43:24;;;;;;;0.67;0.60;;;;;;;9.40;84.45;99683.16;5015713;28;20444;-67
2020/12/24 09:45:51;;;;;;;0.40;0.30;;;;;;;9.43;84.07;99679.00;5014930;28;20464;-67
2020/12/24 09:48:18;;;;;;;0.40;0.30;;;;;;;9.44;82.77;99669.81;5007532;28;20454;-67
2020/12/24 09:50:45;;;;;;;0.60;0.57;;;;;;;9.47;83.15;99680.78;5014662;28;20489;-66
2020/12/24 09:53:11;;;;;;;0.40;0.30;;;;;;;9.50;83.56;99682.06;5014893;28;20447;-66
2020/12/24 09:55:37;;;;;;;0.40;0.30;;;;;;;9.47;83.51;99677.28;5014172;28;20849;-67
2020/12/24 09:58:03;;;;;;;0.40;0.30;;;;;;;9.44;82.94;99672.53;5013914;28;20970;-66
2020/12/24 10:00:29;;;;;;;0.40;0.30;;;;;;;9.50;83.08;99679.34;5014384;28;20950;-66
2020/12/24 10:02:55;;;;;;;0.40;0.30;;;;;;;9.44;83.35;99673.31;5014149;28;20448;-66
2020/12/24 10:05:22;;;;;;;0.40;0.30;;;;;;;9.46;83.01;99672.97;5013618;28;20945;-68
2020/12/24 10:07:49;;;;;;;0.40;0.30;;;;;;;9.43;83.88;99669.03;5014479;28;20421;-66
2020/12/24 10:10:15;;;;;;;0.50;0.50;;;;;;;9.43;83.41;99654.69;5014278;28;20440;-67
2020/12/24 10:12:41;;;;;;;0.40;0.30;;;;;;;9.42;83.09;99661.22;5013990;28;20538;-66
2020/12/24 10:15:07;;;;;;;0.50;0.30;;;;;;;9.46;83.16;99664.88;5014390;28;20468;-67
2020/12/24 10:17:33;;;;;;;0.40;0.30;;;;;;;9.41;84.85;99656.94;5013382;28;20476;-66
2020/12/24 10:19:59;;;;;;;0.40;0.30;;;;;;;9.38;84.33;99663.75;5013278;28;20498;-68
2020/12/24 10:22:26;;;;;;;0.70;0.50;;;;;;;9.37;84.24;99655.97;5014393;28;20479;-67
2020/12/24 10:24:53;;;;;;;0.40;0.30;;;;;;;9.39;84.10;99664.56;5004946;28;20455;-66
2020/12/24 10:27:19;;;;;;;0.40;0.30;;;;;;;9.39;83.22;99659.16;5013699;28;20546;-68
2020/12/24 10:29:45;;;;;;;0.40;0.30;;;;;;;9.44;83.66;99656.31;5013815;28;20949;-67
2020/12/24 10:32:12;;;;;;;0.73;0.60;;;;;;;9.41;84.62;99652.31;5013803;28;20475;-70
2020/12/24 10:34:38;;;;;;;0.40;0.30;;;;;;;9.34;86.74;99657.38;5014763;28;20445;-69
2020/12/24 10:37:04;;;;;;;0.40;0.30;;;;;;;9.20;86.78;99652.09;5016625;28;20471;-68
2020/12/24 10:39:32;;;;;;;0.40;0.30;;;;;;;9.03;88.84;99660.97;5016370;28;20464;-68
2020/12/24 10:41:59;;;;;;;0.40;0.30;;;;;;;8.87;90.44;99659.00;5014463;28;20444;-66
2020/12/24 10:44:25;;;;;;;0.50;0.50;;;;;;;8.75;93.01;99663.09;5013792;28;20452;-66
2020/12/24 10:46:54;;;;;;;0.57;0.57;;;;;;;8.63;94.89;99667.47;5014477;28;20460;-68
2020/12/24 10:49:21;;;;;;;3.63;2.83;;;;;;;8.56;95.96;99668.72;5014878;28;20444;-65
2020/12/24 10:51:47;;;;;;;0.40;0.30;;;;;;;8.49;96.26;99670.25;5015200;28;20454;-67
2020/12/24 10:54:13;;;;;;;0.40;0.20;;;;;;;8.37;97.53;99672.72;5013998;28;20448;-68
2020/12/24 10:56:40;;;;;;;0.40;0.30;;;;;;;8.28;98.48;99667.28;5014086;28;20452;-66
2020/12/24 10:59:06;;;;;;;0.40;0.30;;;;;;;8.20;99.39;99668.00;5014901;28;20480;-68
2020/12/24 11:01:33;;;;;;;0.40;0.30;;;;;;;8.03;99.00;99668.69;5014117;28;20448;-67
2020/12/24 11:03:59;;;;;;;0.40;0.30;;;;;;;7.90;98.14;99664.16;5013213;28;20960;-67
2020/12/24 11:06:32;;;;;;;0.40;0.30;;;;;;;7.75;98.22;99660.72;5013750;28;20503;-65
2020/12/24 11:08:59;;;;;;;0.40;0.30;;;;;;;7.55;97.28;99659.25;5012916;28;20862;-67
2020/12/24 11:11:25;;;;;;;0.40;0.30;;;;;;;7.42;98.06;99670.06;5013340;28;20448;-66
2020/12/24 11:13:52;;;;;;;0.40;0.33;;;;;;;7.30;98.35;99668.72;5013366;28;20491;-64
2020/12/24 11:16:22;;;;;;;0.40;0.30;;;;;;;7.32;97.03;99669.19;5013039;28;20491;-65
2020/12/24 11:18:48;;;;;;;0.40;0.30;;;;;;;7.32;98.34;99661.09;5012990;28;20846;-65
2020/12/24 11:21:15;;;;;;;0.40;0.30;;;;;;;7.31;96.06;99664.91;5010454;28;20453;-65
2020/12/24 11:23:41;;;;;;;0.40;0.30;;;;;;;7.21;94.51;99670.50;5012924;28;20506;-65
2020/12/24 11:26:07;;;;;;;0.50;0.50;;;;;;;7.25;93.51;99665.31;5012690;28;20987;-66
2020/12/24 11:28:33;;;;;;;0.40;0.30;;;;;;;7.28;94.12;99662.00;5012633;28;20440;-65
2020/12/24 11:31:00;;;;;;;0.40;0.30;;;;;;;7.36;94.59;99671.28;5012781;28;20476;-66
2020/12/24 11:33:26;;;;;;;0.40;0.30;;;;;;;7.39;95.06;99667.97;5013898;28;20447;-63
2020/12/24 11:35:53;;;;;;;0.40;0.30;;;;;;;7.41;94.39;99665.78;5010894;28;20555;-65
2020/12/24 11:38:19;;;;;;;0.40;0.30;;;;;;;7.40;93.55;99656.91;5013089;28;20542;-64